sensor_id;sensor_type;location;lat;lon;timestamp;P1;durP1;ratioP1;P2;durP2;ratioP2
21543;SDS011;10933;50.754;11.508;2023-06-14T11:42:39;2.30;;;2.20;;
21543;SDS011;10933;50.754;11.508;2023-06-14T11:45:10;2.10;;;2.00;;
21543;SDS011;10933;50.754;11.508;2023-06-14T11:47:37;2.22;;;1.90;;
21543;SDS011;10933;50.754;11.508;2023-06-14T11:50:08;2.10;;;2.00;;
21543;SDS011;10933;50.754;11.508;2023-06-14T11:52:36;2.30;;;2.10;;
21543;SDS011;10933;50.754;11.508;2023-06-14T11:55:03;2.17;;;2.08;;
21543;SDS011;10933;50.754;11.508;2023-06-14T11:57:30;2.22;;;2.13;;
21543;SDS011;10933;50.754;11.508;2023-06-14T12:00:03;2.03;;;1.92;;
21543;SDS011;10933;50.754;11.508;2023-06-14T12:02:37;2.42;;;2.25;;
21543;SDS011;10933;50.754;11.508;2023-06-14T12:05:05;2.38;;;2.28;;
21543;SDS011;10933;50.754;11.508;2023-06-14T12:07:34;2.20;;;2.10;;
21543;SDS011;10933;50.754;11.508;2023-06-14T12:12:30;5.55;;;2.42;;
21543;SDS011;10933;50.754;11.508;2023-06-14T12:15:02;8.45;;;2.72;;
21543;SDS011;10933;50.754;11.508;2023-06-14T12:17:36;2.22;;;2.13;;
21543;SDS011;10933;50.754;11.508;2023-06-14T12:20:07;1.92;;;1.83;;
21543;SDS011;10933;50.754;11.508;2023-06-14T12:22:56;2.25;;;2.15;;
21543;SDS011;10933;50.754;11.508;2023-06-14T12:25:26;2.55;;;2.10;;
21543;SDS011;10933;50.754;11.508;2023-06-14T12:27:55;15.93;;;3.00;;
21543;SDS011;10933;50.754;11.508;2023-06-14T12:30:22;29.58;;;3.35;;
21543;SDS011;10933;50.754;11.508;2023-06-14T12:32:48;2.50;;;2.40;;
21543;SDS011;10933;50.754;11.508;2023-06-14T12:35:16;3.55;;;2.10;;
21543;SDS011;10933;50.754;11.508;2023-06-14T12:37:46;4.25;;;2.65;;
21543;SDS011;10933;50.754;11.508;2023-06-14T12:40:12;2.78;;;2.67;;
21543;SDS011;10933;50.754;11.508;2023-06-14T12:42:38;3.88;;;2.78;;
21543;SDS011;10933;50.754;11.508;2023-06-14T12:45:05;3.67;;;2.47;;
21543;SDS011;10933;50.754;11.508;2023-06-14T12:47:32;2.63;;;2.42;;
21543;SDS011;10933;50.754;11.508;2023-06-14T12:49:58;2.55;;;2.45;;
21543;SDS011;10933;50.754;11.508;2023-06-14T12:52:24;3.08;;;2.72;;
21543;SDS011;10933;50.754;11.508;2023-06-14T12:54:50;3.10;;;2.80;;
21543;SDS011;10933;50.754;11.508;2023-06-14T12:57:16;5.18;;;2.83;;
21543;SDS011;10933;50.754;11.508;2023-06-14T12:59:42;2.60;;;2.50;;
21543;SDS011;10933;50.754;11.508;2023-06-14T13:04:42;2.22;;;2.13;;
21543;SDS011;10933;50.754;11.508;2023-06-14T13:07:09;2.20;;;2.10;;
21543;SDS011;10933;50.754;11.508;2023-06-14T13:09:39;2.55;;;2.45;;
21543;SDS011;10933;50.754;11.508;2023-06-14T13:12:06;2.47;;;2.38;;
21543;SDS011;10933;50.754;11.508;2023-06-14T13:14:33;3.25;;;2.30;;
21543;SDS011;10933;50.754;11.508;2023-06-14T13:17:00;2.47;;;2.38;;
21543;SDS011;10933;50.754;11.508;2023-06-14T13:19:26;2.53;;;2.33;;
21543;SDS011;10933;50.754;11.508;2023-06-14T13:21:52;2.28;;;2.17;;
21543;SDS011;10933;50.754;11.508;2023-06-14T13:24:18;4.50;;;2.13;;
21543;SDS011;10933;50.754;11.508;2023-06-14T13:26:44;2.00;;;1.90;;
21543;SDS011;10933;50.754;11.508;2023-06-14T13:29:10;2.38;;;2.25;;
21543;SDS011;10933;50.754;11.508;2023-06-14T13:31:36;3.03;;;2.00;;
21543;SDS011;10933;50.754;11.508;2023-06-14T13:34:03;3.70;;;2.17;;
21543;SDS011;10933;50.754;11.508;2023-06-14T13:36:29;2.10;;;2.00;;
21543;SDS011;10933;50.754;11.508;2023-06-14T13:38:55;5.68;;;1.95;;
21543;SDS011;10933;50.754;11.508;2023-06-14T13:41:23;2.20;;;2.10;;
21543;SDS011;10933;50.754;11.508;2023-06-14T13:43:56;2.00;;;1.90;;
21543;SDS011;10933;50.754;11.508;2023-06-14T13:46:23;2.22;;;2.13;;
21543;SDS011;10933;50.754;11.508;2023-06-14T13:48:49;2.22;;;2.13;;
21543;SDS011;10933;50.754;11.508;2023-06-14T13:51:16;4.70;;;2.40;;
21543;SDS011;10933;50.754;11.508;2023-06-14T13:53:50;2.40;;;2.30;;
21543;SDS011;10933;50.754;11.508;2023-06-14T13:56:18;3.30;;;2.08;;
21543;SDS011;10933;50.754;11.508;2023-06-14T13:58:44;2.50;;;2.30;;
21543;SDS011;10933;50.754;11.508;2023-06-14T14:01:10;2.10;;;2.00;;
21543;SDS011;10933;50.754;11.508;2023-06-14T14:03:37;2.13;;;2.03;;
21543;SDS011;10933;50.754;11.508;2023-06-14T14:06:03;2.33;;;2.22;;
21543;SDS011;10933;50.754;11.508;2023-06-14T14:08:30;2.35;;;1.90;;
21543;SDS011;10933;50.754;11.508;2023-06-14T14:10:57;4.55;;;2.20;;
21543;SDS011;10933;50.754;11.508;2023-06-14T14:13:23;1.80;;;1.70;;
21543;SDS011;10933;50.754;11.508;2023-06-14T14:15:50;3.83;;;2.30;;
21543;SDS011;10933;50.754;11.508;2023-06-14T14:18:16;2.10;;;2.00;;
21543;SDS011;10933;50.754;11.508;2023-06-14T14:20:43;4.90;;;2.25;;
21543;SDS011;10933;50.754;11.508;2023-06-14T14:23:09;11.30;;;2.20;;
21543;SDS011;10933;50.754;11.508;2023-06-14T14:25:35;2.08;;;1.98;;
21543;SDS011;10933;50.754;11.508;2023-06-14T14:28:02;2.38;;;2.17;;
21543;SDS011;10933;50.754;11.508;2023-06-14T14:30:28;2.17;;;2.08;;
21543;SDS011;10933;50.754;11.508;2023-06-14T14:32:54;2.03;;;1.92;;
21543;SDS011;10933;50.754;11.508;2023-06-14T14:35:20;2.00;;;1.90;;
21543;SDS011;10933;50.754;11.508;2023-06-14T14:37:48;2.20;;;2.10;;
21543;SDS011;10933;50.754;11.508;2023-06-14T14:40:14;2.35;;;2.25;;
21543;SDS011;10933;50.754;11.508;2023-06-14T14:42:41;2.40;;;2.30;;
21543;SDS011;10933;50.754;11.508;2023-06-14T14:45:07;1.67;;;1.58;;
21543;SDS011;10933;50.754;11.508;2023-06-14T14:47:33;2.28;;;2.17;;
21543;SDS011;10933;50.754;11.508;2023-06-14T14:49:59;1.90;;;1.80;;
21543;SDS011;10933;50.754;11.508;2023-06-14T14:52:26;2.00;;;1.90;;
21543;SDS011;10933;50.754;11.508;2023-06-14T14:54:52;2.28;;;2.17;;
21543;SDS011;10933;50.754;11.508;2023-06-14T14:57:18;2.38;;;2.28;;
21543;SDS011;10933;50.754;11.508;2023-06-14T14:59:45;1.90;;;1.63;;
21543;SDS011;10933;50.754;11.508;2023-06-14T15:02:11;1.75;;;1.65;;
21543;SDS011;10933;50.754;11.508;2023-06-14T15:04:37;1.58;;;1.50;;
21543;SDS011;10933;50.754;11.508;2023-06-14T15:07:03;1.73;;;1.63;;
21543;SDS011;10933;50.754;11.508;2023-06-14T15:09:31;2.08;;;1.90;;
21543;SDS011;10933;50.754;11.508;2023-06-14T15:11:57;1.77;;;1.67;;
21543;SDS011;10933;50.754;11.508;2023-06-14T15:14:23;1.63;;;1.52;;
21543;SDS011;10933;50.754;11.508;2023-06-14T15:16:49;1.67;;;1.58;;
21543;SDS011;10933;50.754;11.508;2023-06-14T15:19:17;1.88;;;1.77;;
21543;SDS011;10933;50.754;11.508;2023-06-14T15:21:43;1.70;;;1.60;;
21543;SDS011;10933;50.754;11.508;2023-06-14T15:24:09;1.80;;;1.70;;
21543;SDS011;10933;50.754;11.508;2023-06-14T15:26:36;2.08;;;1.60;;
21543;SDS011;10933;50.754;11.508;2023-06-14T15:29:02;1.88;;;1.77;;
21543;SDS011;10933;50.754;11.508;2023-06-14T15:31:28;4.07;;;1.80;;
21543;SDS011;10933;50.754;11.508;2023-06-14T15:33:54;1.65;;;1.55;;
21543;SDS011;10933;50.754;11.508;2023-06-14T15:36:20;5.28;;;1.85;;
21543;SDS011;10933;50.754;11.508;2023-06-14T15:38:46;2.03;;;1.92;;
21543;SDS011;10933;50.754;11.508;2023-06-14T15:41:12;5.00;;;1.77;;
21543;SDS011;10933;50.754;11.508;2023-06-14T15:43:39;1.67;;;1.58;;
21543;SDS011;10933;50.754;11.508;2023-06-14T15:46:05;2.28;;;2.08;;
21543;SDS011;10933;50.754;11.508;2023-06-14T15:48:31;2.10;;;1.77;;
21543;SDS011;10933;50.754;11.508;2023-06-14T15:50:57;1.70;;;1.60;;
21543;SDS011;10933;50.754;11.508;2023-06-14T15:53:23;1.67;;;1.58;;
21543;SDS011;10933;50.754;11.508;2023-06-14T15:55:49;1.60;;;1.50;;
21543;SDS011;10933;50.754;11.508;2023-06-14T15:58:15;1.67;;;1.58;;
21543;SDS011;10933;50.754;11.508;2023-06-14T16:00:42;1.85;;;1.75;;
21543;SDS011;10933;50.754;11.508;2023-06-14T16:03:08;3.35;;;1.25;;
21543;SDS011;10933;50.754;11.508;2023-06-14T16:05:34;2.85;;;1.58;;
21543;SDS011;10933;50.754;11.508;2023-06-14T16:08:00;1.65;;;1.55;;
21543;SDS011;10933;50.754;11.508;2023-06-14T16:10:26;1.45;;;1.35;;
21543;SDS011;10933;50.754;11.508;2023-06-14T16:12:52;1.73;;;1.42;;
21543;SDS011;10933;50.754;11.508;2023-06-14T16:15:18;1.65;;;1.55;;
21543;SDS011;10933;50.754;11.508;2023-06-14T16:17:44;1.50;;;1.40;;
21543;SDS011;10933;50.754;11.508;2023-06-14T16:20:11;1.50;;;1.40;;
21543;SDS011;10933;50.754;11.508;2023-06-14T16:22:37;1.30;;;1.30;;
21543;SDS011;10933;50.754;11.508;2023-06-14T16:25:03;1.77;;;1.67;;
21543;SDS011;10933;50.754;11.508;2023-06-14T16:27:33;1.33;;;1.33;;
21543;SDS011;10933;50.754;11.508;2023-06-14T16:30:00;2.35;;;2.25;;
21543;SDS011;10933;50.754;11.508;2023-06-14T16:32:26;2.22;;;2.13;;
21543;SDS011;10933;50.754;11.508;2023-06-14T16:34:53;1.92;;;1.83;;
21543;SDS011;10933;50.754;11.508;2023-06-14T16:37:19;1.88;;;1.77;;
21543;SDS011;10933;50.754;11.508;2023-06-14T16:39:46;2.63;;;1.77;;
21543;SDS011;10933;50.754;11.508;2023-06-14T16:42:12;1.92;;;1.83;;
21543;SDS011;10933;50.754;11.508;2023-06-14T16:44:38;2.35;;;2.25;;
21543;SDS011;10933;50.754;11.508;2023-06-14T16:47:04;2.20;;;2.10;;
21543;SDS011;10933;50.754;11.508;2023-06-14T16:49:31;2.15;;;2.05;;
21543;SDS011;10933;50.754;11.508;2023-06-14T16:51:57;3.10;;;2.03;;
21543;SDS011;10933;50.754;11.508;2023-06-14T16:54:23;2.55;;;2.45;;
21543;SDS011;10933;50.754;11.508;2023-06-14T16:56:50;3.80;;;2.10;;
21543;SDS011;10933;50.754;11.508;2023-06-14T16:59:16;2.55;;;2.35;;
21543;SDS011;10933;50.754;11.508;2023-06-14T17:01:43;2.53;;;2.25;;
21543;SDS011;10933;50.754;11.508;2023-06-14T17:04:09;2.20;;;2.00;;
21543;SDS011;10933;50.754;11.508;2023-06-14T17:06:35;3.17;;;2.50;;
21543;SDS011;10933;50.754;11.508;2023-06-14T17:09:01;2.35;;;2.25;;
21543;SDS011;10933;50.754;11.508;2023-06-14T17:11:27;5.50;;;2.13;;
21543;SDS011;10933;50.754;11.508;2023-06-14T17:13:54;2.40;;;2.30;;
21543;SDS011;10933;50.754;11.508;2023-06-14T17:16:20;2.05;;;1.95;;
21543;SDS011;10933;50.754;11.508;2023-06-14T17:18:47;2.08;;;1.98;;
21543;SDS011;10933;50.754;11.508;2023-06-14T17:21:13;2.40;;;2.30;;
21543;SDS011;10933;50.754;11.508;2023-06-14T17:23:39;2.47;;;2.30;;
21543;SDS011;10933;50.754;11.508;2023-06-14T17:26:05;3.05;;;2.22;;
21543;SDS011;10933;50.754;11.508;2023-06-14T17:28:32;2.13;;;2.03;;
21543;SDS011;10933;50.754;11.508;2023-06-14T17:30:58;2.33;;;2.22;;
21543;SDS011;10933;50.754;11.508;2023-06-14T17:33:25;1.95;;;1.85;;
21543;SDS011;10933;50.754;11.508;2023-06-14T17:35:51;2.53;;;2.42;;
21543;SDS011;10933;50.754;11.508;2023-06-14T17:38:17;2.08;;;1.98;;
21543;SDS011;10933;50.754;11.508;2023-06-14T17:40:43;2.65;;;1.80;;
21543;SDS011;10933;50.754;11.508;2023-06-14T17:43:09;1.83;;;1.73;;
21543;SDS011;10933;50.754;11.508;2023-06-14T17:45:35;2.05;;;1.95;;
21543;SDS011;10933;50.754;11.508;2023-06-14T17:48:02;2.28;;;2.08;;
21543;SDS011;10933;50.754;11.508;2023-06-14T17:50:28;3.55;;;1.88;;
21543;SDS011;10933;50.754;11.508;2023-06-14T17:52:54;2.03;;;1.85;;
21543;SDS011;10933;50.754;11.508;2023-06-14T17:55:21;2.25;;;2.15;;
21543;SDS011;10933;50.754;11.508;2023-06-14T17:57:47;1.70;;;1.60;;
21543;SDS011;10933;50.754;11.508;2023-06-14T18:00:14;2.42;;;2.22;;
21543;SDS011;10933;50.754;11.508;2023-06-14T18:02:40;1.90;;;1.80;;
21543;SDS011;10933;50.754;11.508;2023-06-14T18:05:06;5.95;;;1.83;;
21543;SDS011;10933;50.754;11.508;2023-06-14T18:07:33;2.50;;;2.30;;
21543;SDS011;10933;50.754;11.508;2023-06-14T18:09:59;2.28;;;2.17;;
21543;SDS011;10933;50.754;11.508;2023-06-14T18:15:44;1.98;;;1.88;;
21543;SDS011;10933;50.754;11.508;2023-06-14T18:18:10;2.15;;;2.05;;
21543;SDS011;10933;50.754;11.508;2023-06-14T18:20:36;6.55;;;2.10;;
21543;SDS011;10933;50.754;11.508;2023-06-14T18:23:02;5.47;;;4.80;;
21543;SDS011;10933;50.754;11.508;2023-06-14T18:25:28;2.33;;;2.22;;
21543;SDS011;10933;50.754;11.508;2023-06-14T18:27:55;2.15;;;2.05;;
21543;SDS011;10933;50.754;11.508;2023-06-14T18:30:21;1.90;;;1.80;;
21543;SDS011;10933;50.754;11.508;2023-06-14T18:32:47;7.82;;;2.20;;
21543;SDS011;10933;50.754;11.508;2023-06-14T18:35:14;4.47;;;2.35;;
21543;SDS011;10933;50.754;11.508;2023-06-14T18:37:41;2.47;;;2.30;;
21543;SDS011;10933;50.754;11.508;2023-06-14T18:40:08;2.67;;;2.47;;
21543;SDS011;10933;50.754;11.508;2023-06-14T18:42:35;2.05;;;1.95;;
21543;SDS011;10933;50.754;11.508;2023-06-14T18:45:01;2.20;;;2.10;;
21543;SDS011;10933;50.754;11.508;2023-06-14T18:47:28;2.38;;;2.17;;
21543;SDS011;10933;50.754;11.508;2023-06-14T18:49:54;2.20;;;2.10;;
21543;SDS011;10933;50.754;11.508;2023-06-14T18:52:20;2.15;;;2.05;;
21543;SDS011;10933;50.754;11.508;2023-06-14T18:54:46;2.65;;;2.55;;
21543;SDS011;10933;50.754;11.508;2023-06-14T18:57:13;2.65;;;2.50;;
21543;SDS011;10933;50.754;11.508;2023-06-14T18:59:39;4.35;;;2.33;;
21543;SDS011;10933;50.754;11.508;2023-06-14T19:02:05;2.33;;;2.20;;
21543;SDS011;10933;50.754;11.508;2023-06-14T19:04:31;2.58;;;2.47;;
21543;SDS011;10933;50.754;11.508;2023-06-14T19:06:57;2.40;;;2.30;;
21543;SDS011;10933;50.754;11.508;2023-06-14T19:09:24;5.47;;;2.00;;
21543;SDS011;10933;50.754;11.508;2023-06-14T19:11:50;2.42;;;2.22;;
21543;SDS011;10933;50.754;11.508;2023-06-14T19:14:17;7.72;;;2.28;;
21543;SDS011;10933;50.754;11.508;2023-06-14T19:16:43;2.55;;;2.45;;
21543;SDS011;10933;50.754;11.508;2023-06-14T19:19:09;2.50;;;2.33;;
21543;SDS011;10933;50.754;11.508;2023-06-14T19:21:36;2.35;;;2.15;;
21543;SDS011;10933;50.754;11.508;2023-06-14T19:24:03;2.53;;;2.42;;
21543;SDS011;10933;50.754;11.508;2023-06-14T19:26:29;2.47;;;2.38;;
21543;SDS011;10933;50.754;11.508;2023-06-14T19:28:56;2.50;;;2.40;;
21543;SDS011;10933;50.754;11.508;2023-06-14T19:31:22;6.95;;;2.30;;
21543;SDS011;10933;50.754;11.508;2023-06-14T19:33:49;2.90;;;2.70;;
21543;SDS011;10933;50.754;11.508;2023-06-14T19:36:17;2.55;;;2.42;;
21543;SDS011;10933;50.754;11.508;2023-06-14T19:38:45;2.80;;;2.70;;
21543;SDS011;10933;50.754;11.508;2023-06-14T19:41:11;2.70;;;2.60;;
21543;SDS011;10933;50.754;11.508;2023-06-14T19:43:41;4.65;;;2.70;;
21543;SDS011;10933;50.754;11.508;2023-06-14T19:46:07;4.20;;;3.00;;
21543;SDS011;10933;50.754;11.508;2023-06-14T19:48:34;2.40;;;2.30;;
21543;SDS011;10933;50.754;11.508;2023-06-14T19:51:00;3.10;;;2.80;;
21543;SDS011;10933;50.754;11.508;2023-06-14T19:53:26;2.50;;;2.40;;
21543;SDS011;10933;50.754;11.508;2023-06-14T19:55:52;3.33;;;3.13;;
21543;SDS011;10933;50.754;11.508;2023-06-14T19:58:19;2.60;;;2.50;;
21543;SDS011;10933;50.754;11.508;2023-06-14T20:00:45;2.60;;;2.50;;
21543;SDS011;10933;50.754;11.508;2023-06-14T20:03:12;2.75;;;2.65;;
21543;SDS011;10933;50.754;11.508;2023-06-14T20:05:38;3.05;;;2.85;;
21543;SDS011;10933;50.754;11.508;2023-06-14T20:08:06;2.83;;;2.72;;
21543;SDS011;10933;50.754;11.508;2023-06-14T20:10:32;2.88;;;2.78;;
21543;SDS011;10933;50.754;11.508;2023-06-14T20:12:58;2.72;;;2.63;;
21543;SDS011;10933;50.754;11.508;2023-06-14T20:15:24;3.55;;;3.35;;
21543;SDS011;10933;50.754;11.508;2023-06-14T20:17:50;2.75;;;2.65;;
21543;SDS011;10933;50.754;11.508;2023-06-14T20:20:17;3.47;;;3.28;;
21543;SDS011;10933;50.754;11.508;2023-06-14T20:22:43;3.17;;;2.97;;
21543;SDS011;10933;50.754;11.508;2023-06-14T20:25:09;3.60;;;3.05;;
21543;SDS011;10933;50.754;11.508;2023-06-14T20:27:35;3.13;;;2.95;;
21543;SDS011;10933;50.754;11.508;2023-06-14T20:30:03;3.22;;;3.03;;
21543;SDS011;10933;50.754;11.508;2023-06-14T20:32:29;3.03;;;2.83;;
21543;SDS011;10933;50.754;11.508;2023-06-14T20:34:56;3.10;;;2.90;;
21543;SDS011;10933;50.754;11.508;2023-06-14T20:37:22;3.47;;;3.20;;
21543;SDS011;10933;50.754;11.508;2023-06-14T20:39:50;3.15;;;3.05;;
21543;SDS011;10933;50.754;11.508;2023-06-14T20:42:18;3.13;;;2.97;;
21543;SDS011;10933;50.754;11.508;2023-06-14T20:44:44;3.20;;;3.00;;
21543;SDS011;10933;50.754;11.508;2023-06-14T20:47:10;3.05;;;2.95;;
21543;SDS011;10933;50.754;11.508;2023-06-14T20:49:40;3.55;;;3.35;;
21543;SDS011;10933;50.754;11.508;2023-06-14T20:52:07;3.25;;;3.05;;
21543;SDS011;10933;50.754;11.508;2023-06-14T20:54:34;3.47;;;3.28;;
21543;SDS011;10933;50.754;11.508;2023-06-14T20:57:05;3.60;;;3.30;;
21543;SDS011;10933;50.754;11.508;2023-06-14T20:59:32;3.38;;;3.17;;
21543;SDS011;10933;50.754;11.508;2023-06-14T21:01:58;2.95;;;2.85;;
21543;SDS011;10933;50.754;11.508;2023-06-14T21:04:24;6.50;;;3.58;;
21543;SDS011;10933;50.754;11.508;2023-06-14T21:06:51;3.70;;;3.30;;
21543;SDS011;10933;50.754;11.508;2023-06-14T21:09:17;3.50;;;3.30;;
21543;SDS011;10933;50.754;11.508;2023-06-14T21:11:43;3.50;;;3.30;;
21543;SDS011;10933;50.754;11.508;2023-06-14T21:14:10;3.47;;;3.28;;
21543;SDS011;10933;50.754;11.508;2023-06-14T21:16:37;3.88;;;3.67;;
21543;SDS011;10933;50.754;11.508;2023-06-14T21:19:03;3.40;;;3.20;;
21543;SDS011;10933;50.754;11.508;2023-06-14T21:21:29;3.67;;;3.47;;
21543;SDS011;10933;50.754;11.508;2023-06-14T21:23:56;3.80;;;3.60;;
21543;SDS011;10933;50.754;11.508;2023-06-14T21:26:22;3.80;;;3.60;;
21543;SDS011;10933;50.754;11.508;2023-06-14T21:28:48;3.75;;;3.55;;
21543;SDS011;10933;50.754;11.508;2023-06-14T21:31:14;4.07;;;3.78;;
21543;SDS011;10933;50.754;11.508;2023-06-14T21:33:44;3.35;;;3.17;;
21543;SDS011;10933;50.754;11.508;2023-06-14T21:36:10;3.28;;;3.08;;
21543;SDS011;10933;50.754;11.508;2023-06-14T21:38:36;3.72;;;3.45;;
21543;SDS011;10933;50.754;11.508;2023-06-14T21:41:02;5.03;;;4.63;;
21543;SDS011;10933;50.754;11.508;2023-06-14T21:43:29;3.95;;;3.75;;
21543;SDS011;10933;50.754;11.508;2023-06-14T21:45:55;4.45;;;4.15;;
21543;SDS011;10933;50.754;11.508;2023-06-14T21:48:21;3.90;;;3.70;;
21543;SDS011;10933;50.754;11.508;2023-06-14T21:50:47;3.85;;;3.65;;
21543;SDS011;10933;50.754;11.508;2023-06-14T21:53:13;4.78;;;3.78;;
21543;SDS011;10933;50.754;11.508;2023-06-14T21:55:40;4.10;;;3.90;;
21543;SDS011;10933;50.754;11.508;2023-06-14T21:58:06;4.00;;;3.70;;
21543;SDS011;10933;50.754;11.508;2023-06-14T22:00:32;3.30;;;3.13;;
21543;SDS011;10933;50.754;11.508;2023-06-14T22:02:58;3.97;;;3.78;;
21543;SDS011;10933;50.754;11.508;2023-06-14T22:05:24;3.78;;;3.58;;
21543;SDS011;10933;50.754;11.508;2023-06-14T22:07:51;4.50;;;4.07;;
21543;SDS011;10933;50.754;11.508;2023-06-14T22:10:17;4.00;;;3.80;;
21543;SDS011;10933;50.754;11.508;2023-06-14T22:12:45;4.43;;;4.13;;
21543;SDS011;10933;50.754;11.508;2023-06-14T22:15:14;4.75;;;3.63;;
21543;SDS011;10933;50.754;11.508;2023-06-14T22:17:41;11.90;;;5.38;;
21543;SDS011;10933;50.754;11.508;2023-06-14T22:20:09;4.20;;;4.00;;
21543;SDS011;10933;50.754;11.508;2023-06-14T22:22:38;4.30;;;4.05;;
21543;SDS011;10933;50.754;11.508;2023-06-14T22:25:04;4.13;;;3.83;;
21543;SDS011;10933;50.754;11.508;2023-06-14T22:27:32;3.78;;;3.58;;
21543;SDS011;10933;50.754;11.508;2023-06-14T22:30:01;4.03;;;3.83;;
21543;SDS011;10933;50.754;11.508;2023-06-14T22:32:29;3.60;;;3.40;;
21543;SDS011;10933;50.754;11.508;2023-06-14T22:34:59;4.88;;;4.57;;
21543;SDS011;10933;50.754;11.508;2023-06-14T22:37:28;3.88;;;3.67;;
21543;SDS011;10933;50.754;11.508;2023-06-14T22:40:05;7.32;;;4.70;;
21543;SDS011;10933;50.754;11.508;2023-06-14T22:42:39;4.43;;;4.22;;
21543;SDS011;10933;50.754;11.508;2023-06-14T22:45:12;4.32;;;4.13;;
21543;SDS011;10933;50.754;11.508;2023-06-14T22:47:41;5.15;;;4.85;;
21543;SDS011;10933;50.754;11.508;2023-06-14T22:50:08;4.70;;;4.50;;
21543;SDS011;10933;50.754;11.508;2023-06-14T22:52:36;4.60;;;4.35;;
21543;SDS011;10933;50.754;11.508;2023-06-14T22:55:05;5.10;;;4.80;;
21543;SDS011;10933;50.754;11.508;2023-06-14T22:57:32;4.25;;;4.05;;
21543;SDS011;10933;50.754;11.508;2023-06-14T22:59:59;4.13;;;3.92;;
21543;SDS011;10933;50.754;11.508;2023-06-14T23:02:29;4.40;;;4.10;;
21543;SDS011;10933;50.754;11.508;2023-06-14T23:04:55;4.18;;;3.97;;
21543;SDS011;10933;50.754;11.508;2023-06-14T23:07:22;4.30;;;4.10;;
21543;SDS011;10933;50.754;11.508;2023-06-14T23:09:51;4.45;;;4.25;;
21543;SDS011;10933;50.754;11.508;2023-06-14T23:12:21;4.38;;;4.18;;
21543;SDS011;10933;50.754;11.508;2023-06-14T23:14:49;3.92;;;3.63;;
21543;SDS011;10933;50.754;11.508;2023-06-14T23:17:15;4.03;;;3.83;;
21543;SDS011;10933;50.754;11.508;2023-06-14T23:19:42;3.85;;;3.65;;
21543;SDS011;10933;50.754;11.508;2023-06-14T23:22:08;4.25;;;4.05;;
21543;SDS011;10933;50.754;11.508;2023-06-14T23:24:38;5.63;;;4.20;;
21543;SDS011;10933;50.754;11.508;2023-06-14T23:27:05;5.10;;;4.82;;
21543;SDS011;10933;50.754;11.508;2023-06-14T23:29:32;4.60;;;4.40;;
21543;SDS011;10933;50.754;11.508;2023-06-14T23:32:05;4.50;;;4.20;;
21543;SDS011;10933;50.754;11.508;2023-06-14T23:34:32;4.97;;;4.68;;
21543;SDS011;10933;50.754;11.508;2023-06-14T23:36:59;4.85;;;4.55;;
21543;SDS011;10933;50.754;11.508;2023-06-14T23:39:28;5.10;;;4.80;;
21543;SDS011;10933;50.754;11.508;2023-06-14T23:41:55;4.90;;;4.43;;
21543;SDS011;10933;50.754;11.508;2023-06-14T23:44:23;4.95;;;4.65;;
21543;SDS011;10933;50.754;11.508;2023-06-14T23:46:50;4.80;;;4.60;;
21543;SDS011;10933;50.754;11.508;2023-06-14T23:49:22;4.75;;;4.45;;
21543;SDS011;10933;50.754;11.508;2023-06-14T23:51:48;5.55;;;5.25;;
21543;SDS011;10933;50.754;11.508;2023-06-14T23:54:16;6.40;;;6.00;;
21543;SDS011;10933;50.754;11.508;2023-06-14T23:56:43;7.97;;;5.63;;
21543;SDS011;10933;50.754;11.508;2023-06-14T23:59:18;6.18;;;5.72;;
